createdAt,value
2022-12-01T00:00:48.000Z,131.3
2022-12-01T00:03:48.009Z,135.1
2022-12-01T00:06:48.052Z,139.1
2022-12-01T00:09:48.256Z,135.9
2022-12-01T00:12:48.059Z,133.5
2022-12-01T00:15:48.077Z,139.4
2022-12-01T00:18:48.087Z,141.3
2022-12-01T00:21:48.107Z,130.7
2022-12-01T00:24:48.145Z,130.7
2022-12-01T00:27:48.134Z,132.3
2022-12-01T00:30:48.153Z,137.2
2022-12-01T00:33:48.169Z,135.2
2022-12-01T00:36:48.185Z,137.7
2022-12-01T00:39:48.488Z,129.6
2022-12-01T00:42:48.245Z,150.7
2022-12-01T00:45:48.356Z,139.7
2022-12-01T00:48:48.241Z,146.5
2022-12-01T00:51:48.262Z,152.5
2022-12-01T00:54:48.286Z,148.4
2022-12-01T00:57:48.293Z,154.3
2022-12-01T01:00:48.364Z,146.2
2022-12-01T01:03:48.324Z,151.5
2022-12-01T01:06:48.350Z,148.7
2022-12-01T01:09:48.574Z,151.5
2022-12-01T01:12:48.383Z,165.8
2022-12-01T01:15:48.410Z,157.2
2022-12-01T01:18:48.469Z,155.9
2022-12-01T01:21:48.424Z,159.5
2022-12-01T01:24:48.451Z,161.6
2022-12-01T01:27:48.456Z,159.1
2022-12-01T01:30:48.539Z,161.1
2022-12-01T01:33:48.491Z,167.7
2022-12-01T01:36:48.538Z,160.4
2022-12-01T01:39:48.862Z,153.7
2022-12-01T01:42:48.613Z,158.9
2022-12-01T01:45:48.589Z,151.8
2022-12-01T01:48:48.571Z,155.3
2022-12-01T01:51:48.579Z,150.3
2022-12-01T01:54:48.594Z,141.9
2022-12-01T01:57:48.609Z,141.3
2022-12-01T02:00:48.652Z,139.2
2022-12-01T02:03:48.613Z,147.3
2022-12-01T02:06:48.609Z,145.5
2022-12-01T02:09:48.895Z,139.8
2022-12-01T02:12:48.631Z,138
2022-12-01T02:15:48.611Z,139.8
2022-12-01T02:18:48.610Z,132.3
2022-12-01T02:21:48.620Z,129.1
2022-12-01T02:24:48.613Z,132.1
2022-12-01T02:27:48.616Z,127.8
2022-12-01T02:30:48.720Z,129.7
2022-12-01T02:33:48.616Z,122.2
2022-12-01T02:36:48.620Z,124.1
2022-12-01T02:39:48.933Z,120.7
2022-12-01T02:42:48.623Z,115.1
2022-12-01T02:45:48.696Z,109.7
2022-12-01T02:48:48.650Z,106.5
2022-12-01T02:51:48.624Z,97.9
2022-12-01T02:54:48.619Z,104.9
2022-12-01T02:57:48.617Z,108.7
2022-12-01T03:00:48.620Z,116.7
2022-12-01T03:03:48.624Z,127.6
2022-12-01T03:06:48.649Z,128.1
2022-12-01T03:09:48.958Z,122.5
2022-12-01T03:12:48.622Z,130
2022-12-01T03:15:48.656Z,125.3
2022-12-01T03:18:48.628Z,127.8
2022-12-01T03:21:48.636Z,136.8
2022-12-01T03:24:48.662Z,131.4
2022-12-01T03:28:13.772Z,117.9
2022-12-01T03:30:48.676Z,113.7
2022-12-01T03:33:48.641Z,114.2
2022-12-01T03:36:48.641Z,108.1
2022-12-01T03:39:48.836Z,101.3
2022-12-01T03:42:48.741Z,104.1
2022-12-01T03:45:48.734Z,104.7
2022-12-01T03:48:48.660Z,103.3
2022-12-01T03:51:48.656Z,99.6
2022-12-01T03:54:48.665Z,107
2022-12-01T03:57:48.663Z,115.6
2022-12-01T04:00:48.706Z,136.4
2022-12-01T04:03:48.673Z,139.8
2022-12-01T04:06:48.683Z,137.9
2022-12-01T04:09:48.879Z,128.9
2022-12-01T04:12:48.677Z,120.8
2022-12-01T04:15:48.730Z,112.9
2022-12-01T04:18:48.729Z,105.9
2022-12-01T04:21:48.689Z,103.4
2022-12-01T04:24:48.691Z,105.4
2022-12-01T04:27:48.698Z,103.2
2022-12-01T04:30:48.703Z,116.9
2022-12-01T04:33:48.706Z,133.4
2022-12-01T04:36:48.738Z,126.6
2022-12-01T04:39:49.052Z,126.8
2022-12-01T04:42:48.712Z,120.6
2022-12-01T04:45:48.720Z,117.8
2022-12-01T04:48:48.723Z,122.6
2022-12-01T04:51:48.737Z,126.4
2022-12-01T04:54:48.765Z,128.8
2022-12-01T04:57:48.741Z,132.5
2022-12-01T05:00:48.759Z,135.9
2022-12-01T05:03:48.753Z,143.9
2022-12-01T05:06:48.757Z,130.4
2022-12-01T05:09:48.952Z,126.2
2022-12-01T05:12:48.802Z,134
2022-12-01T05:15:48.771Z,127.6
2022-12-01T05:18:48.824Z,128.1
2022-12-01T05:21:48.783Z,121.3
2022-12-01T05:24:48.788Z,132.2
2022-12-01T05:27:48.799Z,131
2022-12-01T05:30:48.843Z,139.5
2022-12-01T05:33:48.816Z,140
2022-12-01T05:36:48.823Z,130.5
2022-12-01T05:39:48.991Z,124.1
2022-12-01T05:42:48.830Z,127.7
2022-12-01T05:45:48.866Z,134.1
2022-12-01T05:48:49.010Z,142
2022-12-01T05:51:48.858Z,139.2
2022-12-01T05:54:48.865Z,141.4
2022-12-01T05:57:48.876Z,144.7
2022-12-01T06:00:48.880Z,148.9
2022-12-01T06:03:48.933Z,161.7
2022-12-01T06:06:48.923Z,164.5
2022-12-01T06:09:49.132Z,163.5
2022-12-01T06:12:48.908Z,172.2
2022-12-01T06:15:48.918Z,160.7
2022-12-01T06:18:48.920Z,167.2
2022-12-01T06:21:48.933Z,177.7
2022-12-01T06:24:48.968Z,185.1
2022-12-01T06:27:48.954Z,178.7
2022-12-01T06:30:48.952Z,203.6
2022-12-01T06:33:48.956Z,206.8
2022-12-01T06:36:48.961Z,210.1
2022-12-01T06:39:49.236Z,214.2
2022-12-01T06:42:49.001Z,205.6
2022-12-01T06:45:49.012Z,204.1
2022-12-01T06:48:48.997Z,213.6
2022-12-01T06:51:48.999Z,230.5
2022-12-01T06:54:49.004Z,209.7
2022-12-01T06:57:49.007Z,235.2
2022-12-01T07:00:52.003Z,230.4
2022-12-01T07:03:49.026Z,218.9
2022-12-01T07:06:49.029Z,192.5
2022-12-01T07:09:49.298Z,162.2
2022-12-01T07:12:49.037Z,166.1
2022-12-01T07:15:49.046Z,141.9
2022-12-01T07:18:49.075Z,131
2022-12-01T07:21:49.053Z,127.2
2022-12-01T07:24:49.059Z,131.6
2022-12-01T07:27:49.065Z,132.4
2022-12-01T07:30:49.114Z,140.8
2022-12-01T07:33:49.071Z,136.7
2022-12-01T07:36:49.111Z,146.3
2022-12-01T07:39:49.345Z,140.2
2022-12-01T07:42:49.076Z,138.4
2022-12-01T07:45:49.096Z,122.3
2022-12-01T07:48:49.089Z,112.6
2022-12-01T07:51:49.082Z,107.2
2022-12-01T07:54:49.106Z,96.7
2022-12-01T07:57:49.092Z,93.6
2022-12-01T08:00:49.086Z,89.6
2022-12-01T08:03:49.093Z,88.2
2022-12-01T08:06:49.090Z,89.6
2022-12-01T08:09:49.407Z,86.6
2022-12-01T08:12:49.139Z,84.7
2022-12-01T08:15:49.152Z,81.4
2022-12-01T08:18:49.124Z,78.3
2022-12-01T08:21:49.129Z,79.4
2022-12-01T08:24:49.137Z,79.1
2022-12-01T08:27:49.139Z,81.2
2022-12-01T08:30:49.251Z,75.9
2022-12-01T08:33:49.166Z,75.8
2022-12-01T08:36:49.174Z,79.5
2022-12-01T08:39:49.387Z,79.3
2022-12-01T08:42:49.198Z,81
2022-12-01T08:45:49.210Z,81.6
2022-12-01T08:48:49.246Z,81.9
2022-12-01T08:51:49.228Z,81.9
2022-12-01T08:54:49.239Z,78.1
2022-12-01T08:57:49.255Z,86.4
2022-12-01T09:00:49.269Z,87.1
2022-12-01T09:03:49.293Z,83.8
2022-12-01T09:06:49.322Z,90
2022-12-01T09:09:49.627Z,86.3
2022-12-01T09:12:49.319Z,95.1
2022-12-01T09:15:49.365Z,89.5
2022-12-01T09:18:49.347Z,91.9
2022-12-01T09:21:49.356Z,92.8
2022-12-01T09:24:49.398Z,89.1
2022-12-01T09:27:49.389Z,93.5
2022-12-01T09:30:49.403Z,91.5
2022-12-01T09:33:49.415Z,96.9
2022-12-01T09:36:49.434Z,96.8
2022-12-01T09:39:49.707Z,95.3
2022-12-01T09:42:49.485Z,91.3
2022-12-01T09:45:49.475Z,95
2022-12-01T09:48:49.623Z,86.6
2022-12-01T09:51:49.516Z,85.6
2022-12-01T09:54:49.522Z,93.4
2022-12-01T09:57:49.538Z,90.4
2022-12-01T10:00:49.616Z,87.9
2022-12-01T10:03:49.566Z,88.1
2022-12-01T10:06:49.587Z,86.9
2022-12-01T10:09:49.777Z,85.4
2022-12-01T10:12:49.615Z,87.4
2022-12-01T10:15:49.632Z,82.6
2022-12-01T10:18:49.691Z,87.3
2022-12-01T10:21:49.669Z,86.4
2022-12-01T10:24:49.685Z,86.1
2022-12-01T10:27:49.701Z,86.7
2022-12-01T10:30:49.722Z,87
2022-12-01T10:33:49.733Z,90.5
2022-12-01T10:36:49.775Z,86.2
2022-12-01T10:39:50.065Z,84.7
2022-12-01T10:42:49.778Z,85.8
2022-12-01T10:45:49.843Z,87.5
2022-12-01T10:48:49.808Z,91.8
2022-12-01T10:51:49.825Z,88.5
2022-12-01T10:54:49.871Z,89.7
2022-12-01T10:57:49.862Z,88.3
2022-12-01T11:01:01.207Z,85.1
2022-12-01T11:03:49.922Z,88.5
2022-12-01T11:06:49.912Z,92.3
2022-12-01T11:09:50.278Z,94.6
2022-12-01T11:12:49.968Z,88.2
2022-12-01T11:15:49.963Z,91.9
2022-12-01T11:18:50.035Z,89.9
2022-12-01T11:21:49.996Z,88
2022-12-01T11:24:50.019Z,94.2
2022-12-01T11:27:50.036Z,100.2
2022-12-01T11:30:53.812Z,97.7
2022-12-01T11:33:50.077Z,99.8
2022-12-01T11:36:50.091Z,99.8
2022-12-01T11:39:50.232Z,93.9
2022-12-01T11:42:50.131Z,94.3
2022-12-01T11:45:50.199Z,95.1
2022-12-01T11:48:50.192Z,90.6
2022-12-01T11:51:50.187Z,99.7
2022-12-01T11:54:50.198Z,111.6
2022-12-01T11:57:50.218Z,113.9
2022-12-01T12:00:50.236Z,110.7
2022-12-01T12:03:50.299Z,109.8
2022-12-01T12:06:50.307Z,114.3
2022-12-01T12:09:50.492Z,109.6
2022-12-01T12:12:50.322Z,115.5
2022-12-01T12:15:50.345Z,117.6
2022-12-01T12:18:50.364Z,119.2
2022-12-01T12:21:50.382Z,119.2
2022-12-01T12:24:50.418Z,118.4
2022-12-01T12:27:50.412Z,108.8
2022-12-01T12:30:50.459Z,113.5
2022-12-01T12:33:50.441Z,107.1
2022-12-01T12:36:50.460Z,110.3
2022-12-01T12:39:50.775Z,103.7
2022-12-01T12:42:50.518Z,109.3
2022-12-01T12:45:50.538Z,113.4
2022-12-01T12:49:11.992Z,117.7
2022-12-01T12:51:50.531Z,118.8
2022-12-01T12:54:50.548Z,122.7
2022-12-01T12:57:50.562Z,119
2022-12-01T13:00:50.604Z,115.5
2022-12-01T13:03:50.595Z,115.8
2022-12-01T13:06:50.612Z,108.1
2022-12-01T13:09:50.777Z,115.8
2022-12-01T13:12:50.642Z,116
2022-12-01T13:15:50.721Z,108.3
2022-12-01T13:18:50.698Z,107
2022-12-01T13:21:50.713Z,108.9
2022-12-01T13:24:50.711Z,104.1
2022-12-01T13:27:50.731Z,106.8
2022-12-01T13:30:50.775Z,102.9
2022-12-01T13:33:50.755Z,106.3
2022-12-01T13:36:50.799Z,114.9
2022-12-01T13:39:50.987Z,116
2022-12-01T13:42:50.811Z,111.1
2022-12-01T13:45:50.834Z,113.2
2022-12-01T13:48:50.852Z,117.8
2022-12-01T13:51:50.866Z,115.3
2022-12-01T13:54:50.913Z,120.6
2022-12-01T13:57:50.911Z,116
2022-12-01T14:00:51.020Z,108.9
2022-12-01T14:03:50.950Z,109.9
2022-12-01T14:06:50.974Z,104.9
2022-12-01T14:09:50.991Z,108.5
2022-12-01T14:12:51.038Z,108.3
2022-12-01T14:15:51.054Z,100.3
2022-12-01T14:18:51.044Z,104.4
2022-12-01T14:21:51.057Z,111.6
2022-12-01T14:24:51.469Z,111.8
2022-12-01T14:27:51.101Z,116.9
2022-12-01T14:30:51.139Z,112.5
2022-12-01T14:33:51.160Z,106.9
2022-12-01T14:36:51.167Z,101.5
2022-12-01T14:39:51.173Z,106.7
2022-12-01T14:42:51.191Z,106.2
2022-12-01T14:45:51.213Z,107
2022-12-01T14:48:51.262Z,102.5
2022-12-01T14:51:51.246Z,105.8
2022-12-01T14:54:51.518Z,103.2
2022-12-01T14:57:51.290Z,104.3
2022-12-01T15:00:51.330Z,106.1
2022-12-01T15:03:51.336Z,106.2
2022-12-01T15:06:51.380Z,104.5
2022-12-01T15:09:51.414Z,106
2022-12-01T15:12:51.407Z,126.2
2022-12-01T15:15:51.425Z,128.2
2022-12-01T15:18:51.453Z,134.6
2022-12-01T15:21:51.478Z,139.4
2022-12-01T15:24:51.753Z,140.3
2022-12-01T15:27:51.545Z,135.6
2022-12-01T15:30:51.541Z,137.7
2022-12-01T15:33:51.563Z,140
2022-12-01T15:36:51.584Z,138.6
2022-12-01T15:39:51.601Z,133.3
2022-12-01T15:42:51.652Z,131.6
2022-12-01T15:45:51.705Z,128.9
2022-12-01T15:48:51.677Z,124.8
2022-12-01T15:51:51.700Z,126
2022-12-01T15:54:52.115Z,122.6
2022-12-01T15:57:51.745Z,123.1
2022-12-01T16:00:51.923Z,127.8
2022-12-01T16:03:51.791Z,128.2
2022-12-01T16:06:51.823Z,126.4
2022-12-01T16:09:51.833Z,127.9
2022-12-01T16:12:51.861Z,123.2
2022-12-01T16:15:51.883Z,121.4
2022-12-01T16:18:51.933Z,113.7
2022-12-01T16:21:51.932Z,114.8
2022-12-01T16:24:52.252Z,109.2
2022-12-01T16:27:51.977Z,106.8
2022-12-01T16:30:52.066Z,109.3
2022-12-01T16:33:52.028Z,107.3
2022-12-01T16:36:52.090Z,100.5
2022-12-01T16:39:52.080Z,95
2022-12-01T16:42:52.110Z,95.8
2022-12-01T16:45:52.190Z,98.7
2022-12-01T16:48:52.163Z,96
2022-12-01T16:51:55.694Z,98.5
2022-12-01T16:54:52.398Z,99.9
2022-12-01T16:57:52.242Z,96.6
2022-12-01T17:00:52.266Z,99.7
2022-12-01T17:03:52.292Z,97
2022-12-01T17:06:52.309Z,101.6
2022-12-01T17:09:52.328Z,104.2
2022-12-01T17:12:52.383Z,110.7
2022-12-01T17:15:52.436Z,108.6
2022-12-01T17:18:52.389Z,112.4
2022-12-01T17:21:52.412Z,112.9
2022-12-01T17:24:52.679Z,111.7
2022-12-01T17:27:52.463Z,111.7
2022-12-01T17:30:52.587Z,111.4
2022-12-01T17:33:52.512Z,112.5
2022-12-01T17:36:52.535Z,117.8
2022-12-01T17:39:52.553Z,116.6
2022-12-01T17:42:52.579Z,120.3
2022-12-01T17:45:52.610Z,115.5
2022-12-01T17:48:52.656Z,118.7
2022-12-01T17:51:52.703Z,122.2
2022-12-01T17:54:52.811Z,122.5
2022-12-01T17:57:52.640Z,123.6
2022-12-01T18:00:52.775Z,122.6
2022-12-01T18:03:52.648Z,125.7
2022-12-01T18:06:54.428Z,127.9
2022-12-01T18:09:52.651Z,130.3
2022-12-01T18:12:52.653Z,127.8
2022-12-01T18:15:52.768Z,125.7
2022-12-01T18:18:52.659Z,124.1
2022-12-01T18:21:52.666Z,123
2022-12-01T18:24:52.977Z,126.7
2022-12-01T18:27:52.671Z,127.4
2022-12-01T18:30:52.747Z,129.1
2022-12-01T18:33:52.671Z,128
2022-12-01T18:36:52.671Z,121.9
2022-12-01T18:39:52.679Z,126.6
2022-12-01T18:42:52.702Z,132.8
2022-12-01T18:45:52.680Z,131.7
2022-12-01T18:48:52.686Z,135.5
2022-12-01T18:51:52.686Z,141.2
2022-12-01T18:54:52.839Z,137.8
2022-12-01T18:57:52.694Z,142.7
2022-12-01T19:00:52.766Z,144.3
2022-12-01T19:03:52.701Z,148.3
2022-12-01T19:06:52.714Z,152.1
2022-12-01T19:09:52.818Z,152.9
2022-12-01T19:12:52.707Z,150.8
2022-12-01T19:15:52.777Z,157
2022-12-01T19:18:52.734Z,158.5
2022-12-01T19:21:52.785Z,166.1
2022-12-01T19:24:53.016Z,168.4
2022-12-01T19:27:52.715Z,164.1
2022-12-01T19:30:52.715Z,164.7
2022-12-01T19:33:52.717Z,170.8
2022-12-01T19:36:52.749Z,182.9
2022-12-01T19:39:52.720Z,186
2022-12-01T19:42:52.724Z,194.9
2022-12-01T19:45:52.737Z,191.7
2022-12-01T19:48:52.729Z,193.7
2022-12-01T19:51:52.728Z,200.2
2022-12-01T19:54:53.164Z,195.7
2022-12-01T19:57:52.733Z,208.5
2022-12-01T20:00:52.807Z,206
2022-12-01T20:03:52.738Z,206.8
2022-12-01T20:06:52.743Z,209.5
2022-12-01T20:09:52.741Z,200.6
2022-12-01T20:12:52.861Z,198.4
2022-12-01T20:15:52.745Z,208.1
2022-12-01T20:18:52.747Z,216.6
2022-12-01T20:21:52.748Z,223.6
2022-12-01T20:24:52.999Z,223.1
2022-12-01T20:27:52.766Z,221.5
2022-12-01T20:30:52.778Z,229.3
2022-12-01T20:33:52.759Z,231.4
2022-12-01T20:36:52.757Z,219.8
2022-12-01T20:39:52.762Z,223.5
2022-12-01T20:42:52.770Z,224.9
2022-12-01T20:45:52.808Z,234.1
2022-12-01T20:48:52.799Z,232.3
2022-12-01T20:51:52.767Z,228.6
2022-12-01T20:54:52.970Z,230.7
2022-12-01T20:57:52.771Z,228.9
2022-12-01T21:00:52.806Z,232.5
2022-12-01T21:03:52.788Z,226
2022-12-01T21:06:52.796Z,236.8
2022-12-01T21:09:52.779Z,232.5
2022-12-01T21:12:52.781Z,243.5
2022-12-01T21:15:52.778Z,226.1
2022-12-01T21:18:52.784Z,220.6
2022-12-01T21:21:52.787Z,217.5
2022-12-01T21:24:53.138Z,207.2
2022-12-01T21:27:52.784Z,195.5
2022-12-01T21:30:52.862Z,190.1
2022-12-01T21:33:52.790Z,193.8
2022-12-01T21:36:52.794Z,183.7
2022-12-01T21:39:52.794Z,171.8
2022-12-01T21:42:52.830Z,167.1
2022-12-01T21:45:52.852Z,165.4
2022-12-01T21:48:52.801Z,164.2
2022-12-01T21:51:52.796Z,164.6
2022-12-01T21:54:53.069Z,163.1
2022-12-01T21:57:52.806Z,165.7
2022-12-01T22:00:52.830Z,164.6
2022-12-01T22:03:53.603Z,173.8
2022-12-01T22:06:52.813Z,167.3
2022-12-01T22:09:52.808Z,164
2022-12-01T22:12:52.818Z,170.3
2022-12-01T22:15:52.853Z,172.5
2022-12-01T22:18:52.838Z,165.9
2022-12-01T22:21:52.820Z,166.5
2022-12-01T22:24:53.149Z,167.9
2022-12-01T22:27:52.824Z,167.6
2022-12-01T22:30:52.889Z,163.5
2022-12-01T22:33:52.831Z,162.3
2022-12-01T22:36:52.860Z,165.3
2022-12-01T22:39:52.835Z,159.3
2022-12-01T22:42:52.838Z,164.7
2022-12-01T22:45:52.847Z,155.3
2022-12-01T22:48:52.843Z,157.4
2022-12-01T22:51:52.845Z,150.8
2022-12-01T22:54:53.254Z,160.4
2022-12-01T22:57:52.850Z,153.6
2022-12-01T23:00:52.852Z,162.2
2022-12-01T23:03:52.862Z,159.1
2022-12-01T23:06:52.861Z,161.1
2022-12-01T23:09:52.866Z,158.9
2022-12-01T23:12:52.896Z,155.7
2022-12-01T23:15:52.943Z,161.5
2022-12-01T23:18:52.874Z,157.8
2022-12-01T23:21:52.871Z,157.1
2022-12-01T23:24:53.057Z,162
2022-12-01T23:27:52.878Z,152.5
2022-12-01T23:30:52.986Z,160.1
2022-12-01T23:33:52.881Z,165.6
2022-12-01T23:36:52.888Z,164.2
2022-12-01T23:39:52.886Z,158.1
2022-12-01T23:42:52.888Z,161.5
2022-12-01T23:45:52.888Z,151.8
2022-12-01T23:48:52.921Z,152.7
2022-12-01T23:51:52.900Z,151.7
2022-12-01T23:54:53.110Z,152.2
2022-12-01T23:57:52.901Z,152.7
